createdAt,value
2023-03-12T00:00:11.451Z,56.31
2023-03-12T00:02:58.602Z,56.01
2023-03-12T00:05:26.015Z,55.77
2023-03-12T00:07:53.992Z,55.94
2023-03-12T00:10:21.719Z,55.94
2023-03-12T00:12:48.783Z,56.10
2023-03-12T00:15:16.401Z,56.32
2023-03-12T00:17:43.839Z,56.40
2023-03-12T00:20:12.309Z,56.12
2023-03-12T00:22:40.288Z,56.30
2023-03-12T00:25:14.490Z,56.33
2023-03-12T00:27:43.922Z,56.52
2023-03-12T00:30:12.562Z,56.43
2023-03-12T00:32:40.208Z,57.01
2023-03-12T00:35:08.723Z,57.32
2023-03-12T00:37:38.242Z,57.23
2023-03-12T00:40:09.465Z,57.42
2023-03-12T00:42:36.783Z,57.36
2023-03-12T00:45:04.634Z,57.47
2023-03-12T00:47:31.755Z,57.51
2023-03-12T00:49:59.614Z,57.26
2023-03-12T00:52:27.244Z,57.85
2023-03-12T00:54:58.351Z,57.41
2023-03-12T00:57:26.160Z,57.84
2023-03-12T00:59:53.852Z,57.82
2023-03-12T01:02:21.525Z,58.09
2023-03-12T01:04:49.206Z,58.15
2023-03-12T01:07:16.719Z,58.69
2023-03-12T01:09:44.393Z,58.48
2023-03-12T01:12:11.833Z,58.51
2023-03-12T01:14:39.444Z,58.61
2023-03-12T01:17:06.892Z,58.60
2023-03-12T01:19:34.387Z,59.00
2023-03-12T01:22:02.066Z,59.33
2023-03-12T01:24:29.768Z,59.12
2023-03-12T01:26:57.545Z,59.77
2023-03-12T01:29:25.828Z,59.25
2023-03-12T01:31:53.019Z,59.40
2023-03-12T01:34:20.674Z,59.02
2023-03-12T01:36:48.163Z,59.46
2023-03-12T01:39:16.026Z,59.20
2023-03-12T01:41:43.110Z,59.34
2023-03-12T01:44:15.346Z,59.08
2023-03-12T01:46:44.418Z,58.97
2023-03-12T01:49:14.615Z,58.45
2023-03-12T01:51:59.025Z,58.44
2023-03-12T01:54:50.096Z,58.10
2023-03-12T01:57:23.962Z,58.53
2023-03-12T02:00:12.154Z,58.53
2023-03-12T02:02:56.638Z,58.01
2023-03-12T02:06:09.913Z,57.95
2023-03-12T02:08:55.906Z,58.34
2023-03-12T02:11:23.159Z,58.28
2023-03-12T02:13:50.244Z,58.38
2023-03-12T02:16:17.559Z,58.40
2023-03-12T02:18:47.326Z,58.59
2023-03-12T02:21:25.802Z,58.50
2023-03-12T02:24:08.515Z,58.49
2023-03-12T02:26:40.272Z,58.49
2023-03-12T02:29:10.812Z,58.52
2023-03-12T02:31:48.055Z,58.59
2023-03-12T02:34:16.040Z,58.57
2023-03-12T02:36:44.004Z,58.77
2023-03-12T02:39:13.091Z,58.67
2023-03-12T02:41:55.018Z,58.86
2023-03-12T02:44:43.870Z,59.16
2023-03-12T02:47:11.204Z,59.40
2023-03-12T02:49:38.427Z,59.64
2023-03-12T02:52:10.054Z,59.68
2023-03-12T02:54:45.481Z,59.68
2023-03-12T02:57:13.139Z,59.91
2023-03-12T02:59:40.493Z,60.11
2023-03-12T03:02:09.665Z,60.22
2023-03-12T03:04:36.609Z,60.58
2023-03-12T03:07:03.984Z,60.55
2023-03-12T03:09:31.017Z,60.28
2023-03-12T03:11:58.293Z,60.46
2023-03-12T03:14:25.506Z,60.62
2023-03-12T03:16:52.958Z,60.71
2023-03-12T03:19:20.217Z,60.87
2023-03-12T03:21:47.834Z,60.45
2023-03-12T03:24:15.183Z,60.69
2023-03-12T03:26:42.995Z,60.49
2023-03-12T03:29:10.295Z,60.12
2023-03-12T03:31:37.655Z,60.11
2023-03-12T03:34:05.081Z,60.05
2023-03-12T03:36:32.536Z,59.98
2023-03-12T03:38:59.960Z,60.30
2023-03-12T03:41:27.454Z,60.22
2023-03-12T03:43:59.184Z,59.96
2023-03-12T03:46:27.391Z,59.82
2023-03-12T03:48:54.814Z,60.03
2023-03-12T03:51:22.881Z,59.83
2023-03-12T03:53:51.160Z,60.04
2023-03-12T03:56:20.973Z,60.09
2023-03-12T03:58:49.154Z,60.08
2023-03-12T04:01:17.285Z,60.47
2023-03-12T04:03:45.874Z,60.55
2023-03-12T04:06:14.005Z,60.54
2023-03-12T04:08:41.530Z,60.66
2023-03-12T04:11:20.427Z,60.53
2023-03-12T04:13:49.640Z,60.62
2023-03-12T04:16:18.175Z,60.41
2023-03-12T04:18:45.358Z,60.09
2023-03-12T04:21:14.996Z,60.59
2023-03-12T04:23:42.196Z,60.33
2023-03-12T04:26:09.717Z,60.55
2023-03-12T04:28:37.796Z,60.39
2023-03-12T04:31:09.613Z,60.96
2023-03-12T04:33:55.111Z,60.70
2023-03-12T04:36:22.299Z,60.73
2023-03-12T04:38:49.641Z,60.52
2023-03-12T04:41:18.184Z,60.54
2023-03-12T04:43:45.146Z,60.45
2023-03-12T04:46:12.542Z,60.07
2023-03-12T04:48:39.990Z,59.86
2023-03-12T04:51:07.398Z,60.07
2023-03-12T04:53:34.479Z,60.59
2023-03-12T04:56:01.705Z,60.07
2023-03-12T04:58:28.764Z,60.34
2023-03-12T05:00:55.961Z,60.07
2023-03-12T05:03:23.339Z,60.07
2023-03-12T05:05:50.802Z,59.92
2023-03-12T05:08:17.825Z,59.83
2023-03-12T05:10:45.704Z,59.76
2023-03-12T05:13:25.736Z,60.08
2023-03-12T05:15:53.292Z,60.00
2023-03-12T05:18:21.619Z,59.94
2023-03-12T05:21:16.527Z,60.43
2023-03-12T05:23:52.192Z,60.03
2023-03-12T05:26:29.973Z,60.28
2023-03-12T05:28:59.170Z,60.12
2023-03-12T05:31:27.714Z,60.13
2023-03-12T05:33:54.821Z,60.03
2023-03-12T05:36:22.109Z,60.43
2023-03-12T05:38:49.163Z,60.26
2023-03-12T05:41:27.995Z,60.48
2023-03-12T05:43:57.398Z,60.76
2023-03-12T05:46:27.121Z,60.73
2023-03-12T05:48:54.357Z,60.60
2023-03-12T05:51:22.243Z,60.60
2023-03-12T05:53:49.715Z,60.83
2023-03-12T05:56:19.414Z,60.89
2023-03-12T05:58:51.175Z,60.81
2023-03-12T06:01:27.230Z,60.96
2023-03-12T06:03:56.235Z,60.98
2023-03-12T06:06:25.727Z,61.27
2023-03-12T06:08:53.769Z,60.91
2023-03-12T06:11:21.654Z,60.87
2023-03-12T06:13:49.543Z,60.77
2023-03-12T06:16:22.163Z,60.86
2023-03-12T06:18:57.466Z,60.95
2023-03-12T06:21:29.419Z,60.64
2023-03-12T06:23:57.702Z,60.30
2023-03-12T06:26:31.720Z,60.36
2023-03-12T06:28:59.134Z,60.35
2023-03-12T06:31:27.492Z,60.51
2023-03-12T06:33:54.504Z,60.71
2023-03-12T06:36:23.512Z,60.03
2023-03-12T06:38:51.855Z,59.93
2023-03-12T06:41:21.258Z,59.96
2023-03-12T06:43:49.244Z,59.88
2023-03-12T06:46:25.527Z,60.50
2023-03-12T06:48:52.606Z,60.06
2023-03-12T06:51:20.055Z,59.94
2023-03-12T06:53:47.248Z,60.32
2023-03-12T06:56:15.118Z,59.51
2023-03-12T06:58:42.463Z,60.16
2023-03-12T07:01:10.061Z,59.82
2023-03-12T07:03:37.393Z,59.30
2023-03-12T07:06:05.361Z,59.52
2023-03-12T07:08:32.443Z,59.40
2023-03-12T07:11:07.117Z,59.77
2023-03-12T07:13:35.328Z,59.77
2023-03-12T07:16:07.531Z,59.86
2023-03-12T07:18:35.078Z,59.56
2023-03-12T07:21:02.494Z,59.42
2023-03-12T07:23:29.716Z,59.61
2023-03-12T07:25:56.866Z,60.20
2023-03-12T07:28:23.876Z,59.95
2023-03-12T07:30:51.171Z,59.87
2023-03-12T07:33:21.908Z,60.00
2023-03-12T07:35:51.967Z,59.44
2023-03-12T07:38:20.868Z,59.44
2023-03-12T07:40:54.356Z,59.27
2023-03-12T07:43:22.682Z,59.54
2023-03-12T07:45:51.246Z,59.07
2023-03-12T07:48:22.134Z,59.50
2023-03-12T07:50:55.338Z,58.97
2023-03-12T07:53:22.460Z,58.65
2023-03-12T07:55:50.346Z,59.23
2023-03-12T07:58:18.220Z,58.85
2023-03-12T08:00:45.798Z,58.20
2023-03-12T08:03:13.686Z,57.76
2023-03-12T08:05:41.702Z,57.47
2023-03-12T08:08:09.298Z,57.74
2023-03-12T08:10:37.287Z,57.23
2023-03-12T08:13:04.510Z,56.92
2023-03-12T08:15:31.983Z,56.63
2023-03-12T08:17:59.556Z,56.97
2023-03-12T08:20:26.861Z,56.76
2023-03-12T08:22:53.922Z,56.01
2023-03-12T08:25:21.265Z,55.96
2023-03-12T08:27:48.398Z,55.79
2023-03-12T08:30:16.437Z,55.76
2023-03-12T08:32:43.534Z,55.27
2023-03-12T08:35:10.813Z,55.15
2023-03-12T08:37:38.068Z,54.84
2023-03-12T08:40:13.684Z,54.94
2023-03-12T08:42:46.129Z,54.14
2023-03-12T08:45:16.462Z,54.22
2023-03-12T08:47:44.841Z,54.42
2023-03-12T08:50:18.304Z,53.63
2023-03-12T08:52:48.661Z,53.86
2023-03-12T08:55:16.090Z,53.15
2023-03-12T08:57:43.067Z,52.95
2023-03-12T09:00:12.059Z,52.84
2023-03-12T09:02:39.477Z,51.92
2023-03-12T09:05:07.927Z,51.53
2023-03-12T09:07:35.779Z,51.65
2023-03-12T09:10:04.265Z,50.95
2023-03-12T09:12:32.647Z,51.21
2023-03-12T09:15:04.261Z,49.43
2023-03-12T09:17:32.687Z,49.43
2023-03-12T09:20:07.748Z,48.96
2023-03-12T09:22:39.908Z,48.65
2023-03-12T09:25:10.461Z,47.50
2023-03-12T09:27:40.125Z,48.04
2023-03-12T09:30:17.078Z,47.33
2023-03-12T09:32:45.792Z,47.50
2023-03-12T09:35:16.740Z,45.51
2023-03-12T09:37:50.112Z,45.82
2023-03-12T09:40:24.354Z,45.17
2023-03-12T09:43:08.439Z,43.28
2023-03-12T09:45:50.390Z,44.14
2023-03-12T09:48:33.500Z,43.35
2023-03-12T09:51:27.433Z,44.01
2023-03-12T09:54:05.195Z,43.84
2023-03-12T09:56:35.094Z,43.69
2023-03-12T09:59:04.203Z,43.35
2023-03-12T10:01:44.576Z,42.45
2023-03-12T10:04:58.178Z,42.90
2023-03-12T10:08:17.489Z,42.47
2023-03-12T10:11:12.706Z,42.67
2023-03-12T10:14:28.371Z,42.90
2023-03-12T10:17:12.325Z,42.04
2023-03-12T10:20:14.951Z,42.12
2023-03-12T10:23:22.105Z,42.21
2023-03-12T10:26:22.536Z,42.23
2023-03-12T10:28:58.869Z,41.59
2023-03-12T10:31:54.462Z,41.87
2023-03-12T10:34:47.018Z,42.33
2023-03-12T10:37:28.275Z,41.49
2023-03-12T10:39:56.264Z,41.61
2023-03-12T10:42:28.796Z,40.92
2023-03-12T10:45:12.256Z,40.94
2023-03-12T10:47:52.071Z,40.76
2023-03-12T10:50:46.532Z,41.67
2023-03-12T10:53:33.284Z,41.52
2023-03-12T10:56:16.955Z,41.00
2023-03-12T10:58:52.008Z,41.64
2023-03-12T11:01:23.893Z,41.03
2023-03-12T11:03:54.108Z,41.49
2023-03-12T11:06:27.813Z,40.68
2023-03-12T11:09:19.859Z,40.27
2023-03-12T11:11:51.188Z,39.94
2023-03-12T11:14:29.659Z,40.29
2023-03-12T11:16:58.089Z,39.79
2023-03-12T11:19:38.921Z,40.09
2023-03-12T11:22:16.406Z,40.01
2023-03-12T11:25:00.403Z,39.94
2023-03-12T11:27:48.365Z,39.94
2023-03-12T11:30:40.419Z,39.86
2023-03-12T11:33:11.433Z,39.55
2023-03-12T11:36:19.878Z,39.14
2023-03-12T11:39:03.340Z,39.89
2023-03-12T11:42:12.142Z,40.12
2023-03-12T11:45:15.838Z,39.34
2023-03-12T11:48:23.636Z,39.06
2023-03-12T11:51:22.075Z,38.58
2023-03-12T11:54:16.027Z,38.96
2023-03-12T11:57:00.001Z,37.94
2023-03-12T12:00:02.681Z,37.49
2023-03-12T12:03:05.344Z,37.15
2023-03-12T12:06:04.744Z,37.24
2023-03-12T12:08:46.645Z,37.15
2023-03-12T12:11:45.658Z,37.37
2023-03-12T12:14:46.114Z,36.80
2023-03-12T12:18:11.233Z,36.36
2023-03-12T12:20:48.981Z,36.73
2023-03-12T12:23:40.093Z,37.04
2023-03-12T12:26:34.550Z,36.73
2023-03-12T12:29:29.550Z,35.96
2023-03-12T12:31:59.847Z,36.23
2023-03-12T12:35:38.474Z,37.49
2023-03-12T12:38:25.452Z,37.94
2023-03-12T12:41:07.647Z,37.43
2023-03-12T12:43:49.464Z,37.48
2023-03-12T12:46:25.640Z,37.12
2023-03-12T12:49:14.597Z,37.39
2023-03-12T12:51:50.453Z,37.90
2023-03-12T12:55:00.804Z,37.38
2023-03-12T12:58:02.467Z,38.43
2023-03-12T13:00:57.826Z,37.88
2023-03-12T13:03:27.901Z,37.90
2023-03-12T13:06:05.733Z,38.05
2023-03-12T13:08:45.682Z,37.60
2023-03-12T13:11:20.355Z,37.57
2023-03-12T13:14:12.673Z,38.15
2023-03-12T13:16:47.122Z,37.79
2023-03-12T13:19:14.251Z,37.52
2023-03-12T13:22:22.714Z,38.07
2023-03-12T13:25:09.921Z,38.46
2023-03-12T13:27:41.687Z,38.95
2023-03-12T13:30:35.872Z,38.93
2023-03-12T13:33:18.805Z,38.65
2023-03-12T13:36:16.201Z,38.99
2023-03-12T13:39:08.222Z,38.84
2023-03-12T13:41:45.583Z,39.20
2023-03-12T13:44:27.563Z,38.90
2023-03-12T13:47:12.573Z,39.18
2023-03-12T13:49:59.490Z,38.92
2023-03-12T13:52:57.969Z,38.15
2023-03-12T13:55:49.979Z,38.28
2023-03-12T13:58:23.676Z,38.87
2023-03-12T14:01:00.122Z,38.47
2023-03-12T14:03:49.957Z,38.64
2023-03-12T14:06:24.684Z,38.07
2023-03-12T14:09:24.214Z,37.89
2023-03-12T14:12:06.563Z,37.71
2023-03-12T14:14:48.093Z,38.06
2023-03-12T14:17:29.480Z,37.30
2023-03-12T14:20:21.774Z,37.96
2023-03-12T14:22:58.358Z,37.93
2023-03-12T14:25:40.151Z,38.33
2023-03-12T14:28:22.407Z,38.55
2023-03-12T14:31:08.155Z,38.52
2023-03-12T14:34:02.014Z,39.16
2023-03-12T14:36:59.162Z,39.20
2023-03-12T14:39:58.039Z,39.33
2023-03-12T14:42:33.920Z,39.25
2023-03-12T14:45:19.345Z,39.76
2023-03-12T14:47:59.236Z,39.79
2023-03-12T14:50:40.746Z,39.98
2023-03-12T14:53:24.139Z,39.41
2023-03-12T14:56:24.445Z,39.74
2023-03-12T14:58:53.448Z,39.54
2023-03-12T15:01:39.592Z,39.26
2023-03-12T15:04:17.253Z,39.79
2023-03-12T15:06:56.797Z,39.47
2023-03-12T15:09:36.206Z,40.07
2023-03-12T15:12:24.959Z,40.46
2023-03-12T15:15:08.407Z,40.53
2023-03-12T15:17:37.448Z,40.25
2023-03-12T15:20:14.483Z,40.60
2023-03-12T15:22:44.718Z,40.51
2023-03-12T15:25:26.517Z,41.10
2023-03-12T15:28:26.099Z,40.59
2023-03-12T15:31:19.024Z,40.69
2023-03-12T15:34:08.100Z,41.49
2023-03-12T15:36:47.887Z,41.22
2023-03-12T15:39:45.019Z,41.52
2023-03-12T15:42:24.119Z,41.57
2023-03-12T15:45:02.438Z,41.94
2023-03-12T15:47:34.244Z,42.00
2023-03-12T15:50:19.728Z,42.25
2023-03-12T15:53:12.073Z,42.60
2023-03-12T15:55:41.912Z,42.81
2023-03-12T15:58:33.687Z,43.20
2023-03-12T16:01:28.301Z,43.76
2023-03-12T16:03:55.908Z,43.46
2023-03-12T16:06:36.899Z,43.84
2023-03-12T16:09:27.193Z,43.62
2023-03-12T16:11:55.805Z,43.98
2023-03-12T16:14:36.349Z,44.38
2023-03-12T16:17:03.717Z,43.86
2023-03-12T16:19:40.763Z,44.14
2023-03-12T16:22:08.020Z,44.52
2023-03-12T16:24:35.332Z,45.44
2023-03-12T16:27:07.508Z,46.50
2023-03-12T16:29:42.254Z,47.09
2023-03-12T16:32:17.903Z,47.75
2023-03-12T16:34:49.401Z,47.87
2023-03-12T16:37:16.423Z,47.66
2023-03-12T16:39:46.382Z,47.83
2023-03-12T16:42:19.494Z,47.34
2023-03-12T16:44:47.941Z,47.22
2023-03-12T16:47:18.642Z,47.30
2023-03-12T16:49:46.076Z,46.97
2023-03-12T16:52:19.426Z,47.50
2023-03-12T16:54:54.064Z,47.54
2023-03-12T16:57:45.333Z,48.60
2023-03-12T17:00:26.991Z,48.81
2023-03-12T17:03:06.817Z,50.16
2023-03-12T17:05:34.201Z,50.20
2023-03-12T17:08:01.343Z,50.03
2023-03-12T17:10:28.557Z,50.59
2023-03-12T17:12:56.786Z,51.70
2023-03-12T17:15:30.907Z,52.64
2023-03-12T17:18:03.194Z,53.30
2023-03-12T17:20:36.321Z,54.01
2023-03-12T17:23:06.075Z,54.59
2023-03-12T17:25:38.540Z,56.32
2023-03-12T17:28:06.188Z,56.68
2023-03-12T17:30:35.025Z,56.09
2023-03-12T17:33:12.416Z,56.40
2023-03-12T17:35:40.695Z,56.32
2023-03-12T17:38:09.050Z,56.77
2023-03-12T17:40:45.259Z,57.75
2023-03-12T17:43:12.974Z,57.49
2023-03-12T17:45:42.094Z,58.21
2023-03-12T17:48:09.623Z,58.19
2023-03-12T17:50:37.653Z,58.31
2023-03-12T17:53:04.975Z,58.19
2023-03-12T17:55:32.590Z,58.31
2023-03-12T17:57:59.663Z,58.17
2023-03-12T18:00:26.972Z,58.74
2023-03-12T18:02:54.126Z,59.58
2023-03-12T18:05:21.994Z,59.19
2023-03-12T18:07:49.885Z,59.28
2023-03-12T18:10:17.986Z,59.93
2023-03-12T18:12:44.940Z,60.50
2023-03-12T18:15:14.870Z,60.32
2023-03-12T18:17:50.105Z,60.53
2023-03-12T18:20:28.698Z,60.29
2023-03-12T18:22:59.572Z,60.20
2023-03-12T18:25:26.931Z,60.89
2023-03-12T18:27:55.775Z,61.57
2023-03-12T18:30:33.462Z,62.05
2023-03-12T18:33:00.508Z,61.35
2023-03-12T18:35:29.194Z,62.01
2023-03-12T18:37:57.422Z,62.95
2023-03-12T18:40:25.258Z,62.84
2023-03-12T18:42:59.409Z,63.55
2023-03-12T18:45:29.450Z,63.86
2023-03-12T18:47:56.863Z,63.66
2023-03-12T18:50:24.410Z,64.05
2023-03-12T18:52:51.399Z,64.44
2023-03-12T18:55:18.873Z,64.79
2023-03-12T18:57:48.061Z,64.77
2023-03-12T19:00:17.877Z,65.32
2023-03-12T19:02:48.418Z,65.38
2023-03-12T19:05:20.626Z,65.74
2023-03-12T19:07:48.155Z,65.98
2023-03-12T19:10:18.242Z,66.19
2023-03-12T19:12:52.586Z,65.73
2023-03-12T19:15:24.500Z,65.79
2023-03-12T19:17:52.841Z,66.15
2023-03-12T19:20:21.579Z,65.98
2023-03-12T19:22:48.798Z,65.67
2023-03-12T19:25:16.506Z,65.74
2023-03-12T19:27:43.876Z,66.18
2023-03-12T19:30:22.096Z,66.57
2023-03-12T19:32:49.078Z,66.59
2023-03-12T19:35:16.492Z,66.99
2023-03-12T19:37:43.635Z,66.81
2023-03-12T19:40:13.424Z,66.79
2023-03-12T19:42:40.851Z,66.91
2023-03-12T19:45:09.587Z,66.83
2023-03-12T19:47:38.777Z,66.58
2023-03-12T19:50:13.588Z,66.24
2023-03-12T19:52:40.476Z,67.42
2023-03-12T19:55:09.047Z,66.66
2023-03-12T19:57:36.234Z,66.58
2023-03-12T20:00:10.040Z,67.29
2023-03-12T20:02:39.372Z,67.09
2023-03-12T20:05:09.340Z,66.86
2023-03-12T20:07:39.483Z,67.02
2023-03-12T20:10:13.172Z,67.96
2023-03-12T20:12:44.939Z,67.39
2023-03-12T20:15:13.830Z,67.50
2023-03-12T20:17:41.322Z,67.11
2023-03-12T20:20:09.742Z,67.93
2023-03-12T20:22:37.373Z,68.01
2023-03-12T20:25:06.874Z,67.96
2023-03-12T20:27:34.396Z,67.81
2023-03-12T20:30:03.597Z,68.05
2023-03-12T20:32:31.001Z,67.95
2023-03-12T20:34:58.329Z,68.13
2023-03-12T20:37:25.626Z,68.46
2023-03-12T20:39:52.937Z,69.03
2023-03-12T20:42:20.137Z,69.20
2023-03-12T20:44:47.473Z,69.49
2023-03-12T20:47:14.467Z,70.34
2023-03-12T20:49:41.601Z,70.21
2023-03-12T20:52:08.563Z,70.34
2023-03-12T20:54:35.708Z,70.36
2023-03-12T20:57:02.577Z,70.69
2023-03-12T20:59:29.693Z,70.57
2023-03-12T21:01:56.810Z,70.41
2023-03-12T21:04:24.105Z,70.54
2023-03-12T21:06:51.861Z,70.24
2023-03-12T21:09:22.313Z,70.73
2023-03-12T21:11:50.528Z,71.15
2023-03-12T21:14:17.830Z,71.62
2023-03-12T21:16:44.848Z,71.63
2023-03-12T21:19:12.098Z,71.22
2023-03-12T21:21:39.248Z,71.74
2023-03-12T21:24:06.918Z,71.34
2023-03-12T21:26:33.978Z,71.56
2023-03-12T21:29:01.228Z,71.64
2023-03-12T21:31:28.303Z,71.49
2023-03-12T21:33:59.428Z,71.45
2023-03-12T21:36:26.985Z,72.02
2023-03-12T21:38:54.297Z,72.10
2023-03-12T21:41:22.005Z,72.19
2023-03-12T21:43:49.333Z,71.92
2023-03-12T21:46:20.479Z,71.73
2023-03-12T21:48:48.373Z,71.98
2023-03-12T21:51:17.876Z,72.13
2023-03-12T21:53:45.642Z,72.33
2023-03-12T21:56:13.012Z,72.02
2023-03-12T21:58:40.298Z,72.41
2023-03-12T22:01:14.994Z,72.01
2023-03-12T22:03:44.789Z,71.95
2023-03-12T22:06:13.720Z,72.98
2023-03-12T22:08:42.690Z,73.00
2023-03-12T22:11:10.667Z,72.50
2023-03-12T22:13:38.336Z,72.57
2023-03-12T22:16:09.097Z,73.02
2023-03-12T22:18:43.861Z,73.17
2023-03-12T22:21:22.486Z,73.11
2023-03-12T22:23:53.413Z,73.48
2023-03-12T22:26:23.705Z,73.15
2023-03-12T22:28:54.785Z,73.62
2023-03-12T22:31:23.949Z,72.97
2023-03-12T22:33:51.834Z,72.93
2023-03-12T22:36:19.897Z,72.54
2023-03-12T22:38:47.843Z,72.76
2023-03-12T22:41:24.977Z,72.91
2023-03-12T22:43:56.008Z,72.78
2023-03-12T22:46:25.942Z,72.71
2023-03-12T22:48:57.492Z,72.89
2023-03-12T22:51:26.191Z,72.60
2023-03-12T22:53:53.985Z,73.30
2023-03-12T22:56:21.952Z,72.84
2023-03-12T22:58:49.376Z,72.76
2023-03-12T23:01:20.217Z,72.96
2023-03-12T23:03:48.837Z,73.00
2023-03-12T23:06:19.108Z,72.85
2023-03-12T23:08:47.832Z,72.79
2023-03-12T23:11:16.666Z,72.29
2023-03-12T23:13:46.320Z,72.48
2023-03-12T23:16:19.175Z,72.16
2023-03-12T23:18:47.651Z,72.15
2023-03-12T23:21:19.580Z,72.02
2023-03-12T23:23:48.481Z,71.49
2023-03-12T23:26:23.487Z,71.58
2023-03-12T23:28:53.553Z,71.86
2023-03-12T23:31:21.666Z,71.66
2023-03-12T23:33:49.032Z,71.71
2023-03-12T23:36:20.481Z,72.20
2023-03-12T23:38:49.347Z,71.79
2023-03-12T23:41:24.077Z,71.38
2023-03-12T23:43:52.335Z,71.23
2023-03-12T23:46:20.284Z,71.06
2023-03-12T23:48:48.864Z,71.41
2023-03-12T23:51:25.498Z,71.06
2023-03-12T23:53:58.195Z,70.79
2023-03-12T23:56:30.785Z,70.70
2023-03-12T23:58:58.057Z,70.80
